Time,TemperatureF,DewpointF,PressureIn,WindDirection,WindDirectionDegrees,WindSpeedMPH,WindSpeedGustMPH,Humidity,HourlyPrecipIn,Conditions,Clouds,dailyrainin,SoftwareType,DateUTC
2013-02-08 00:12:00,69.4,65.0,29.94,SSW,201,1.0,-999.0,86,-99.99,,,0.00,weatherlink.com 1.10,2013-02-08 05:12:00,
2013-02-08 00:27:00,69.4,65.0,29.94,South,172,1.0,-999.0,86,-99.99,,,0.00,weatherlink.com 1.10,2013-02-08 05:27:00,
2013-02-08 00:42:00,69.4,65.0,29.89,South,180,4.0,-999.0,86,-99.99,,,0.00,weatherlink.com 1.10,2013-02-08 05:42:00,
2013-02-08 00:57:00,69.7,65.0,29.92,SSW,210,0.0,-999.0,86,-99.99,,,0.00,weatherlink.com 1.10,2013-02-08 05:57:00,
2013-02-08 01:12:00,69.6,65.0,29.94,WSW,253,0.0,-999.0,86,-99.99,,,0.00,weatherlink.com 1.10,2013-02-08 06:12:00,
2013-02-08 01:27:00,69.3,65.0,29.93,WSW,252,2.0,-999.0,87,-99.99,,,0.00,weatherlink.com 1.10,2013-02-08 06:27:00,
2013-02-08 01:42:00,69.2,66.0,29.92,SE,133,2.0,-999.0,88,-99.99,,,0.00,weatherlink.com 1.10,2013-02-08 06:42:00,
2013-02-08 01:57:00,69.2,66.0,29.91,South,171,2.0,-999.0,88,-99.99,,,0.00,weatherlink.com 1.10,2013-02-08 06:57:00,
2013-02-08 02:12:00,69.2,66.0,29.91,SSE,163,0.0,-999.0,88,-99.99,,,0.00,weatherlink.com 1.10,2013-02-08 07:12:00,
2013-02-08 02:27:00,69.0,65.0,29.92,SSW,203,0.0,-999.0,88,-99.99,,,0.00,weatherlink.com 1.10,2013-02-08 07:27:00,
2013-02-08 02:42:00,68.8,66.0,29.92,SW,217,0.0,-999.0,89,-99.99,,,0.00,weatherlink.com 1.10,2013-02-08 07:42:00,
2013-02-08 02:57:00,68.4,65.0,29.91,SSW,196,0.0,-999.0,90,-99.99,,,0.00,weatherlink.com 1.10,2013-02-08 07:57:00,
2013-02-08 03:12:00,68.3,65.0,29.90,SSW,196,0.0,-999.0,90,-99.99,,,0.00,weatherlink.com 1.10,2013-02-08 08:12:00,
2013-02-08 03:27:00,68.3,66.0,29.91,SSW,203,0.0,-999.0,91,-99.99,,,0.00,weatherlink.com 1.10,2013-02-08 08:27:00,
2013-02-08 03:42:00,68.0,65.0,29.92,SSW,213,0.0,-999.0,91,-99.99,,,0.00,weatherlink.com 1.10,2013-02-08 08:42:00,
2013-02-08 03:57:00,68.1,66.0,29.92,SSW,211,0.0,-999.0,92,-99.99,,,0.00,weatherlink.com 1.10,2013-02-08 08:57:00,
2013-02-08 04:12:00,68.2,66.0,29.91,SSW,201,0.0,-999.0,92,-99.99,,,0.00,weatherlink.com 1.10,2013-02-08 09:12:00,
2013-02-08 04:27:00,68.3,66.0,29.92,SW,217,0.0,-999.0,92,-99.99,,,0.00,weatherlink.com 1.10,2013-02-08 09:27:00,
2013-02-08 04:42:00,68.5,66.0,29.91,SSW,196,2.0,-999.0,92,-99.99,,,0.00,weatherlink.com 1.10,2013-02-08 09:42:00,
2013-02-08 04:57:00,68.8,66.0,29.91,SSW,203,0.0,-999.0,92,-99.99,,,0.00,weatherlink.com 1.10,2013-02-08 09:57:00,
2013-02-08 05:12:00,69.0,67.0,29.91,SSW,195,1.0,-999.0,92,-99.99,,,0.00,weatherlink.com 1.10,2013-02-08 10:12:00,
2013-02-08 05:27:00,69.1,67.0,29.91,SW,223,2.0,-999.0,92,-99.99,,,0.00,weatherlink.com 1.10,2013-02-08 10:27:00,
2013-02-08 05:42:00,69.1,67.0,29.92,SSW,207,0.0,-999.0,92,-99.99,,,0.00,weatherlink.com 1.10,2013-02-08 10:42:00,
2013-02-08 05:57:00,69.0,67.0,29.93,SSW,212,1.0,-999.0,93,-99.99,,,0.00,weatherlink.com 1.10,2013-02-08 10:57:00,
2013-02-08 06:12:00,69.1,67.0,29.93,SSW,196,1.0,-999.0,93,-99.99,,,0.00,weatherlink.com 1.10,2013-02-08 11:12:00,
2013-02-08 06:27:00,69.0,67.0,29.93,SW,230,2.0,-999.0,93,-99.99,,,0.00,weatherlink.com 1.10,2013-02-08 11:27:00,
2013-02-08 06:42:00,69.0,67.0,29.94,SW,222,0.0,-999.0,94,-99.99,,,0.00,weatherlink.com 1.10,2013-02-08 11:42:00,
2013-02-08 06:57:00,69.1,67.0,29.95,WSW,246,2.0,-999.0,94,-99.99,,,0.00,weatherlink.com 1.10,2013-02-08 11:57:00,
2013-02-08 07:12:00,69.1,67.0,29.95,SW,223,0.0,-999.0,94,-99.99,,,0.00,weatherlink.com 1.10,2013-02-08 12:12:00,
2013-02-08 07:27:00,69.2,68.0,29.95,South,184,1.0,-999.0,94,-99.99,,,0.00,weatherlink.com 1.10,2013-02-08 12:27:00,
2013-02-08 07:42:00,69.5,68.0,29.96,SE,130,0.0,-999.0,94,-99.99,,,0.00,weatherlink.com 1.10,2013-02-08 12:42:00,
2013-02-08 07:57:00,70.6,69.0,29.97,SW,225,1.0,-999.0,93,-99.99,,,0.00,weatherlink.com 1.10,2013-02-08 12:57:00,
2013-02-08 08:12:00,71.4,69.0,29.97,South,175,1.0,-999.0,93,-99.99,,,0.00,weatherlink.com 1.10,2013-02-08 13:12:00,
2013-02-08 08:27:00,72.4,70.0,29.97,WSW,241,2.0,-999.0,91,-99.99,,,0.00,weatherlink.com 1.10,2013-02-08 13:27:00,
2013-02-08 08:42:00,73.5,70.0,29.98,SSW,213,1.0,-999.0,88,-99.99,,,0.00,weatherlink.com 1.10,2013-02-08 13:42:00,
2013-02-08 08:57:00,74.3,70.0,29.99,WSW,242,2.0,-999.0,86,-99.99,,,0.00,weatherlink.com 1.10,2013-02-08 13:57:00,
2013-02-08 09:12:00,74.9,70.0,29.99,WSW,240,1.0,-999.0,85,-99.99,,,0.00,weatherlink.com 1.10,2013-02-08 14:12:00,
2013-02-08 09:27:00,74.9,70.0,30.00,SSE,163,0.0,-999.0,85,-99.99,,,0.00,weatherlink.com 1.10,2013-02-08 14:27:00,
2013-02-08 09:42:00,74.6,70.0,30.01,WSW,245,1.0,-999.0,85,-99.99,,,0.00,weatherlink.com 1.10,2013-02-08 14:42:00,
2013-02-08 09:57:00,74.9,70.0,30.00,WSW,247,0.0,-999.0,85,-99.99,,,0.00,weatherlink.com 1.10,2013-02-08 14:57:00,
2013-02-08 10:12:00,75.7,70.0,30.01,WSW,242,1.0,-999.0,83,-99.99,,,0.00,weatherlink.com 1.10,2013-02-08 15:12:00,
2013-02-08 10:28:00,75.1,70.0,30.01,WSW,257,0.0,-999.0,84,-99.99,,,0.00,weatherlink.com 1.10,2013-02-08 15:28:00,
2013-02-08 10:43:00,75.0,70.0,30.01,WSW,252,1.0,-999.0,85,-99.99,,,0.00,weatherlink.com 1.10,2013-02-08 15:43:00,
2013-02-08 10:58:00,74.8,70.0,30.01,SW,221,1.0,-999.0,85,-99.99,,,0.00,weatherlink.com 1.10,2013-02-08 15:58:00,
2013-02-08 11:13:00,76.3,70.0,30.00,West,277,0.0,-999.0,82,-99.99,,,0.00,weatherlink.com 1.10,2013-02-08 16:13:00,
2013-02-08 11:28:00,77.3,70.0,30.00,WSW,242,0.0,-999.0,78,-99.99,,,0.00,weatherlink.com 1.10,2013-02-08 16:28:00,
2013-02-08 11:43:00,77.6,70.0,30.00,WNW,289,2.0,-999.0,77,-99.99,,,0.00,weatherlink.com 1.10,2013-02-08 16:43:00,
2013-02-08 11:58:00,77.6,70.0,29.99,WNW,287,2.0,-999.0,77,-99.99,,,0.00,weatherlink.com 1.10,2013-02-08 16:58:00,
2013-02-08 12:13:00,77.7,70.0,30.00,WNW,303,2.0,-999.0,77,-99.99,,,0.00,weatherlink.com 1.10,2013-02-08 17:13:00,
2013-02-08 12:28:00,77.8,70.0,29.99,WNW,289,4.0,-999.0,77,-99.99,,,0.00,weatherlink.com 1.10,2013-02-08 17:28:00,
2013-02-08 12:43:00,78.6,70.0,29.99,SW,226,1.0,-999.0,76,-99.99,,,0.00,weatherlink.com 1.10,2013-02-08 17:43:00,
2013-02-08 12:58:00,78.6,70.0,29.98,NW,324,2.0,-999.0,75,-99.99,,,0.00,weatherlink.com 1.10,2013-02-08 17:58:00,
2013-02-08 13:13:00,78.8,69.0,29.98,WNW,288,3.0,-999.0,73,-99.99,,,0.00,weatherlink.com 1.10,2013-02-08 18:13:00,
2013-02-08 13:28:00,80.1,70.0,29.97,WNW,287,3.0,-999.0,70,-99.99,,,0.00,weatherlink.com 1.10,2013-02-08 18:28:00,
2013-02-08 13:43:00,79.4,70.0,29.96,NW,304,2.0,-999.0,72,-99.99,,,0.00,weatherlink.com 1.10,2013-02-08 18:43:00,
2013-02-08 13:58:00,79.4,69.0,29.96,WNW,298,4.0,-999.0,71,-99.99,,,0.00,weatherlink.com 1.10,2013-02-08 18:58:00,
2013-02-08 14:13:00,80.1,70.0,29.96,West,273,3.0,-999.0,71,-99.99,,,0.00,weatherlink.com 1.10,2013-02-08 19:13:00,
2013-02-08 14:28:00,79.8,70.0,29.96,NNW,330,2.0,-999.0,71,-99.99,,,0.00,weatherlink.com 1.10,2013-02-08 19:28:00,
2013-02-08 14:43:00,80.8,69.0,29.95,West,277,2.0,-999.0,68,-99.99,,,0.00,weatherlink.com 1.10,2013-02-08 19:43:00,
2013-02-08 14:58:00,82.0,70.0,29.95,NW,322,0.0,-999.0,67,-99.99,,,0.00,weatherlink.com 1.10,2013-02-08 19:58:00,
2013-02-08 15:13:00,81.5,69.0,29.94,West,274,3.0,-999.0,66,-99.99,,,0.00,weatherlink.com 1.10,2013-02-08 20:13:00,
2013-02-08 15:28:00,81.7,70.0,29.93,North,360,2.0,-999.0,67,-99.99,,,0.00,weatherlink.com 1.10,2013-02-08 20:28:00,
2013-02-08 15:43:00,82.3,69.0,29.93,NW,316,2.0,-999.0,64,-99.99,,,0.00,weatherlink.com 1.10,2013-02-08 20:43:00,
2013-02-08 15:58:00,81.4,69.0,29.93,NW,323,1.0,-999.0,66,-99.99,,,0.00,weatherlink.com 1.10,2013-02-08 20:58:00,
2013-02-08 16:13:00,81.4,69.0,29.93,West,267,0.0,-999.0,65,-99.99,,,0.00,weatherlink.com 1.10,2013-02-08 21:13:00,
2013-02-08 16:28:00,81.4,68.0,29.93,NNW,341,3.0,-999.0,64,-99.99,,,0.00,weatherlink.com 1.10,2013-02-08 21:28:00,
2013-02-08 16:43:00,81.4,68.0,29.93,NW,313,0.0,-999.0,64,-99.99,,,0.00,weatherlink.com 1.10,2013-02-08 21:43:00,
2013-02-08 16:58:00,81.2,67.0,29.94,WNW,284,0.0,-999.0,63,-99.99,,,0.00,weatherlink.com 1.10,2013-02-08 21:58:00,
2013-02-08 17:13:00,81.2,68.0,29.94,West,263,0.0,-999.0,64,-99.99,,,0.00,weatherlink.com 1.10,2013-02-08 22:13:00,
2013-02-08 17:28:00,80.7,67.0,29.94,WNW,292,0.0,-999.0,63,-99.99,,,0.00,weatherlink.com 1.10,2013-02-08 22:28:00,
2013-02-08 17:43:00,80.3,67.0,29.94,NW,326,0.0,-999.0,63,-99.99,,,0.00,weatherlink.com 1.10,2013-02-08 22:43:00,
2013-02-08 17:58:00,79.7,66.0,29.95,NNW,341,0.0,-999.0,64,-99.99,,,0.00,weatherlink.com 1.10,2013-02-08 22:58:00,
2013-02-08 18:13:00,78.7,66.0,29.95,NW,309,0.0,-999.0,65,-99.99,,,0.00,weatherlink.com 1.10,2013-02-08 23:13:00,
2013-02-08 18:28:00,77.7,65.0,29.95,NW,309,0.0,-999.0,65,-99.99,,,0.00,weatherlink.com 1.10,2013-02-08 23:28:00,
2013-02-08 18:58:00,75.2,65.0,29.96,NW,309,0.0,-999.0,70,-99.99,,,0.00,weatherlink.com 1.10,2013-02-08 23:58:00,
2013-02-08 19:13:00,74.4,65.0,29.96,NW,309,0.0,-999.0,73,-99.99,,,0.00,weatherlink.com 1.10,2013-02-09 00:13:00,
2013-02-08 19:28:00,73.5,65.0,29.97,NW,309,0.0,-999.0,75,-99.99,,,0.00,weatherlink.com 1.10,2013-02-09 00:28:00,
2013-02-08 19:43:00,72.9,65.0,29.97,NW,309,0.0,-999.0,76,-99.99,,,0.00,weatherlink.com 1.10,2013-02-09 00:43:00,
2013-02-08 19:58:00,72.4,65.0,29.98,SW,217,0.0,-999.0,78,-99.99,,,0.00,weatherlink.com 1.10,2013-02-09 00:58:00,
2013-02-08 20:13:00,72.2,66.0,29.98,SW,217,0.0,-999.0,80,-99.99,,,0.00,weatherlink.com 1.10,2013-02-09 01:13:00,
2013-02-08 20:28:00,71.6,66.0,29.99,SW,217,0.0,-999.0,82,-99.99,,,0.00,weatherlink.com 1.10,2013-02-09 01:28:00,
2013-02-08 20:43:00,71.7,67.0,29.99,SSW,203,0.0,-999.0,86,-99.99,,,0.00,weatherlink.com 1.10,2013-02-09 01:43:00,
2013-02-08 20:58:00,71.2,67.0,29.99,SSW,203,0.0,-999.0,86,-99.99,,,0.00,weatherlink.com 1.10,2013-02-09 01:58:00,
2013-02-08 21:13:00,70.7,67.0,29.99,SSW,203,0.0,-999.0,88,-99.99,,,0.00,weatherlink.com 1.10,2013-02-09 02:13:00,
2013-02-08 21:28:00,69.9,67.0,30.00,SSW,203,0.0,-999.0,89,-99.99,,,0.00,weatherlink.com 1.10,2013-02-09 02:28:00,
2013-02-08 21:43:00,69.1,66.0,30.00,SSW,203,0.0,-999.0,89,-99.99,,,0.00,weatherlink.com 1.10,2013-02-09 02:43:00,
2013-02-08 21:58:00,68.9,66.0,30.00,SSW,203,0.0,-999.0,91,-99.99,,,0.00,weatherlink.com 1.10,2013-02-09 02:58:00,
2013-02-08 22:13:00,69.1,67.0,30.00,SSW,203,0.0,-999.0,93,-99.99,,,0.00,weatherlink.com 1.10,2013-02-09 03:13:00,
2013-02-08 22:28:00,68.6,67.0,30.01,SSW,203,0.0,-999.0,93,-99.99,,,0.00,weatherlink.com 1.10,2013-02-09 03:28:00,
2013-02-08 22:43:00,68.1,66.0,30.01,SSW,203,0.0,-999.0,94,-99.99,,,0.00,weatherlink.com 1.10,2013-02-09 03:43:00,
2013-02-08 22:58:00,68.3,67.0,30.01,SW,215,0.0,-999.0,94,-99.99,,,0.00,weatherlink.com 1.10,2013-02-09 03:58:00,
2013-02-08 23:13:00,68.0,66.0,30.02,SW,215,0.0,-999.0,94,-99.99,,,0.00,weatherlink.com 1.10,2013-02-09 04:13:00,
2013-02-08 23:28:00,67.5,66.0,30.02,SW,215,0.0,-999.0,94,-99.99,,,0.00,weatherlink.com 1.10,2013-02-09 04:28:00,
2013-02-08 23:43:00,67.7,66.0,30.02,SW,222,0.0,-999.0,95,-99.99,,,0.00,weatherlink.com 1.10,2013-02-09 04:43:00,
2013-02-08 23:58:00,67.2,66.0,30.02,SW,222,0.0,-999.0,94,-99.99,,,0.00,weatherlink.com 1.10,2013-02-09 04:58:00,